createdAt,value
2023-01-12T00:00:17.281Z,2.96
2023-01-12T00:02:44.110Z,2.89
2023-01-12T00:05:10.748Z,2.87
2023-01-12T00:07:37.294Z,2.88
2023-01-12T00:10:27.883Z,2.75
2023-01-12T00:13:37.636Z,2.75
2023-01-12T00:16:36.235Z,2.42
2023-01-12T00:19:09.048Z,2.31
2023-01-12T00:21:39.596Z,1.96
2023-01-12T00:24:08.614Z,2.14
2023-01-12T00:26:35.252Z,2.17
2023-01-12T00:29:02.077Z,2.53
2023-01-12T00:31:28.655Z,2.74
2023-01-12T00:33:55.226Z,2.76
2023-01-12T00:36:21.879Z,2.75
2023-01-12T00:38:48.470Z,2.69
2023-01-12T00:41:35.006Z,2.82
2023-01-12T00:44:20.317Z,2.39
2023-01-12T00:47:01.910Z,2.81
2023-01-12T00:49:28.781Z,2.97
2023-01-12T00:51:55.354Z,3.03
2023-01-12T00:54:21.871Z,3.15
2023-01-12T00:57:33.476Z,2.96
2023-01-12T01:00:20.337Z,3.12
2023-01-12T01:02:47.024Z,3.16
2023-01-12T01:05:13.724Z,3.24
2023-01-12T01:07:40.527Z,3.25
2023-01-12T01:10:07.771Z,3.14
2023-01-12T01:12:34.352Z,3.21
2023-01-12T01:20:24.768Z,3.60
2023-01-12T01:22:51.329Z,3.73
2023-01-12T01:25:17.864Z,3.93
2023-01-12T01:27:44.426Z,4.04
2023-01-12T01:34:06.437Z,4.22
2023-01-12T01:36:33.129Z,4.30
2023-01-12T01:39:00.016Z,4.36
2023-01-12T01:41:29.791Z,4.45
2023-01-12T01:44:26.734Z,4.52
2023-01-12T01:47:02.017Z,4.45
2023-01-12T01:49:34.212Z,4.21
2023-01-12T01:52:06.143Z,4.41
2023-01-12T01:54:37.901Z,4.55
2023-01-12T01:57:05.401Z,4.66
2023-01-12T01:59:36.162Z,4.60
2023-01-12T02:02:03.908Z,4.69
2023-01-12T02:04:42.773Z,4.60
2023-01-12T02:07:45.628Z,4.08
2023-01-12T02:10:24.736Z,3.95
2023-01-12T02:13:10.203Z,4.43
2023-01-12T02:16:21.654Z,4.58
2023-01-12T02:19:03.218Z,4.78
2023-01-12T02:21:38.722Z,4.75
2023-01-12T02:24:17.316Z,4.79
2023-01-12T02:27:05.287Z,4.88
2023-01-12T02:29:54.054Z,4.99
2023-01-12T02:32:23.548Z,5.10
2023-01-12T02:34:59.064Z,5.09
2023-01-12T02:37:45.260Z,5.05
2023-01-12T02:40:20.748Z,5.17
2023-01-12T02:43:16.877Z,5.17
2023-01-12T02:46:37.588Z,5.03
2023-01-12T02:49:23.417Z,5.09
2023-01-12T02:51:52.065Z,4.91
2023-01-12T02:54:21.797Z,4.88
2023-01-12T02:56:52.175Z,5.11
2023-01-12T02:59:25.942Z,5.17
2023-01-12T03:01:58.473Z,5.26
2023-01-12T03:04:26.050Z,5.16
2023-01-12T03:06:58.636Z,4.87
2023-01-12T03:09:31.023Z,5.12
2023-01-12T03:12:06.306Z,5.09
2023-01-12T03:14:38.214Z,5.01
2023-01-12T03:17:09.825Z,4.79
2023-01-12T03:30:27.574Z,4.61
2023-01-12T03:32:54.150Z,4.99
2023-01-12T03:36:03.727Z,5.05
2023-01-12T03:39:00.990Z,5.24
2023-01-12T03:41:50.515Z,5.20
2023-01-12T03:44:38.815Z,5.11
2023-01-12T03:47:13.617Z,5.21
2023-01-12T03:50:06.072Z,5.20
2023-01-12T03:52:36.019Z,5.46
2023-01-12T03:55:05.290Z,5.57
2023-01-12T03:57:32.517Z,5.67
2023-01-12T04:00:00.925Z,5.65
2023-01-12T04:02:27.768Z,5.68
2023-01-12T04:04:54.353Z,5.66
2023-01-12T04:07:22.534Z,5.58
2023-01-12T04:12:24.354Z,5.61
2023-01-12T04:14:50.987Z,5.64
2023-01-12T04:17:17.655Z,5.67
2023-01-12T04:23:45.431Z,5.80
2023-01-12T04:26:12.037Z,5.78
2023-01-12T04:28:38.588Z,5.84
2023-01-12T04:31:05.270Z,5.77
2023-01-12T04:33:31.817Z,5.86
2023-01-12T04:35:58.377Z,5.92
2023-01-12T04:38:40.570Z,5.87
2023-01-12T04:41:08.029Z,5.80
2023-01-12T04:43:35.241Z,5.75
2023-01-12T04:46:06.834Z,5.72
2023-01-12T04:49:01.357Z,5.86
2023-01-12T04:51:52.902Z,5.92
2023-01-12T04:54:28.602Z,5.82
2023-01-12T04:56:55.137Z,5.87
2023-01-12T04:59:21.718Z,5.84
2023-01-12T05:01:48.274Z,5.87
2023-01-12T05:04:15.069Z,5.93
2023-01-12T05:06:41.685Z,5.95
2023-01-12T05:09:27.739Z,5.83
2023-01-12T05:11:54.296Z,5.89
2023-01-12T05:14:20.811Z,5.74
2023-01-12T05:16:47.393Z,5.86
2023-01-12T05:19:14.099Z,5.79
2023-01-12T05:21:40.692Z,5.75
2023-01-12T05:28:21.861Z,5.87
2023-01-12T05:30:48.482Z,5.93
2023-01-12T05:33:19.411Z,5.88
2023-01-12T05:35:46.481Z,5.84
2023-01-12T05:38:13.152Z,5.91
2023-01-12T05:40:39.711Z,5.85
2023-01-12T05:43:46.932Z,5.87
2023-01-12T05:46:14.691Z,6.03
2023-01-12T05:48:41.507Z,6.09
2023-01-12T05:51:10.459Z,6.12
2023-01-12T05:57:38.171Z,5.75
2023-01-12T06:00:05.425Z,5.86
2023-01-12T06:02:32.032Z,5.80
2023-01-12T06:04:58.846Z,5.87
2023-01-12T06:07:25.389Z,5.86
2023-01-12T06:09:52.359Z,5.96
2023-01-12T06:12:37.463Z,5.80
2023-01-12T06:15:04.385Z,5.94
2023-01-12T06:17:31.047Z,6.05
2023-01-12T06:19:57.589Z,6.05
2023-01-12T06:22:24.771Z,6.08
2023-01-12T06:24:51.328Z,6.08
2023-01-12T06:27:17.895Z,5.98
2023-01-12T06:29:44.451Z,6.17
2023-01-12T06:32:11.035Z,5.89
2023-01-12T06:34:38.127Z,5.92
2023-01-12T06:37:07.165Z,6.10
2023-01-12T06:39:34.465Z,6.17
2023-01-12T06:42:19.610Z,6.24
2023-01-12T06:44:48.098Z,6.31
2023-01-12T06:47:15.817Z,6.30
2023-01-12T06:49:42.415Z,6.36
2023-01-12T06:52:08.985Z,6.38
2023-01-12T06:54:35.610Z,6.31
2023-01-12T06:57:02.385Z,6.25
2023-01-12T06:59:28.948Z,6.17
2023-01-12T07:01:55.588Z,6.29
2023-01-12T07:04:22.394Z,6.33
2023-01-12T07:06:49.005Z,6.27
2023-01-12T07:09:15.553Z,6.32
2023-01-12T07:11:42.121Z,6.35
2023-01-12T07:14:09.377Z,6.49
2023-01-12T07:16:36.074Z,6.51
2023-01-12T07:19:02.825Z,6.42
2023-01-12T07:21:29.545Z,6.44
2023-01-12T07:23:56.355Z,6.50
2023-01-12T07:26:23.147Z,6.71
2023-01-12T07:28:49.749Z,6.84
2023-01-12T07:31:16.406Z,6.92
2023-01-12T07:33:43.025Z,6.99
2023-01-12T07:36:09.678Z,7.16
2023-01-12T07:38:37.348Z,7.07
2023-01-12T07:41:04.850Z,6.80
2023-01-12T07:43:33.577Z,6.77
2023-01-12T07:46:00.572Z,6.61
2023-01-12T07:48:27.552Z,6.84
2023-01-12T07:50:54.839Z,7.06
2023-01-12T07:53:21.954Z,7.06
2023-01-12T07:55:48.662Z,7.00
2023-01-12T07:58:15.308Z,7.15
2023-01-12T08:00:42.019Z,7.19
2023-01-12T08:03:14.208Z,7.25
2023-01-12T08:05:43.866Z,7.38
2023-01-12T08:08:10.549Z,7.56
2023-01-12T08:10:37.477Z,7.62
2023-01-12T08:13:06.663Z,7.68
2023-01-12T08:15:39.135Z,7.75
2023-01-12T08:18:20.934Z,7.88
2023-01-12T08:20:48.913Z,7.97
2023-01-12T08:23:21.695Z,8.00
2023-01-12T08:25:56.225Z,7.98
2023-01-12T08:28:36.311Z,8.28
2023-01-12T08:31:03.468Z,8.22
2023-01-12T08:33:30.353Z,8.25
2023-01-12T08:35:59.324Z,8.23
2023-01-12T08:38:25.889Z,8.35
2023-01-12T08:41:11.164Z,8.22
2023-01-12T08:44:12.807Z,8.26
2023-01-12T08:46:46.856Z,8.44
2023-01-12T08:49:16.917Z,8.69
2023-01-12T08:51:44.258Z,8.63
2023-01-12T08:54:13.179Z,8.82
2023-01-12T08:56:39.829Z,8.73
2023-01-12T08:59:06.949Z,8.93
2023-01-12T09:01:34.416Z,8.91
2023-01-12T09:04:01.435Z,8.76
2023-01-12T09:06:34.820Z,8.77
2023-01-12T09:09:03.963Z,8.49
2023-01-12T09:11:30.993Z,8.81
2023-01-12T09:13:58.658Z,8.85
2023-01-12T09:16:27.103Z,8.57
2023-01-12T09:18:53.881Z,8.87
2023-01-12T09:21:22.488Z,8.89
2023-01-12T09:23:49.700Z,9.01
2023-01-12T09:26:21.936Z,8.66
2023-01-12T09:28:49.054Z,8.80
2023-01-12T09:31:19.525Z,9.00
2023-01-12T09:33:47.142Z,9.01
2023-01-12T09:36:19.099Z,8.89
2023-01-12T09:38:46.720Z,8.84
2023-01-12T09:41:44.075Z,8.98
2023-01-12T09:44:57.389Z,9.12
2023-01-12T09:47:28.306Z,9.12
2023-01-12T09:50:25.267Z,8.97
2023-01-12T09:53:10.747Z,8.93
2023-01-12T09:55:50.250Z,9.12
2023-01-12T09:58:34.878Z,9.44
2023-01-12T10:06:19.715Z,8.89
2023-01-12T10:08:56.727Z,9.17
2023-01-12T10:11:38.844Z,9.54
2023-01-12T10:14:18.003Z,9.36
2023-01-12T10:17:01.755Z,9.58
2023-01-12T10:19:57.676Z,9.72
2023-01-12T10:25:38.171Z,9.97
2023-01-12T10:30:41.531Z,10.18
2023-01-12T10:33:25.157Z,10.47
2023-01-12T10:35:56.473Z,10.54
2023-01-12T10:38:34.704Z,10.60
2023-01-12T10:41:04.149Z,10.36
2023-01-12T10:47:49.343Z,10.75
2023-01-12T10:50:36.495Z,10.37
2023-01-12T10:53:13.624Z,10.48
2023-01-12T10:55:49.450Z,10.37
2023-01-12T10:58:31.307Z,10.05
2023-01-12T11:08:57.647Z,9.96
2023-01-12T11:14:33.633Z,10.15
2023-01-12T11:17:28.374Z,10.45
2023-01-12T11:19:58.299Z,10.03
2023-01-12T11:22:32.174Z,10.17
2023-01-12T11:25:39.643Z,10.05
2023-01-12T11:34:06.650Z,10.33
2023-01-12T11:40:38.096Z,10.29
2023-01-12T11:44:16.086Z,10.47
2023-01-12T12:13:35.563Z,10.97
2023-01-12T12:16:23.223Z,11.02
2023-01-12T12:18:58.252Z,11.20
2023-01-12T12:21:42.175Z,11.30
2023-01-12T12:24:36.676Z,11.34
2023-01-12T12:27:03.148Z,11.38
2023-01-12T12:29:40.948Z,11.39
2023-01-12T12:33:04.217Z,11.10
2023-01-12T12:35:48.095Z,10.59
2023-01-12T12:38:23.290Z,9.99
2023-01-12T12:41:34.890Z,10.14
2023-01-12T12:48:33.028Z,9.99
2023-01-12T12:51:09.254Z,10.01
2023-01-12T12:53:49.720Z,9.60
2023-01-12T12:56:33.019Z,9.47
2023-01-12T12:59:01.570Z,9.58
2023-01-12T13:01:30.440Z,9.88
2023-01-12T13:04:17.939Z,9.71
2023-01-12T13:06:50.524Z,9.52
2023-01-12T13:09:17.027Z,9.43
2023-01-12T13:11:54.146Z,9.73
2023-01-12T13:14:31.175Z,9.67
2023-01-12T13:17:01.776Z,9.63
2023-01-12T13:19:46.311Z,9.59
2023-01-12T13:22:50.843Z,9.70
2023-01-12T13:25:19.375Z,9.62
2023-01-12T13:27:57.820Z,9.61
2023-01-12T13:30:30.527Z,9.56
2023-01-12T13:33:15.334Z,9.88
2023-01-12T13:35:44.625Z,10.02
2023-01-12T13:38:43.035Z,10.03
2023-01-12T13:41:45.721Z,10.16
2023-01-12T13:44:19.768Z,10.09
2023-01-12T13:46:48.755Z,9.96
2023-01-12T13:49:33.681Z,10.24
2023-01-12T13:52:21.690Z,10.29
2023-01-12T13:54:50.731Z,10.17
2023-01-12T13:57:25.669Z,10.11
2023-01-12T14:00:24.885Z,10.18
2023-01-12T14:02:52.597Z,10.03
2023-01-12T14:05:47.700Z,10.09
2023-01-12T14:09:16.384Z,9.89
2023-01-12T14:11:56.693Z,9.42
2023-01-12T14:14:56.101Z,9.49
2023-01-12T14:17:49.172Z,9.58
2023-01-12T14:20:24.537Z,9.16
2023-01-12T14:23:12.785Z,9.54
2023-01-12T14:25:39.349Z,9.13
2023-01-12T14:28:14.875Z,9.34
2023-01-12T14:30:46.855Z,9.42
2023-01-12T14:33:23.595Z,9.58
2023-01-12T14:35:55.319Z,9.68
2023-01-12T14:38:26.879Z,9.68
2023-01-12T14:41:01.820Z,9.66
2023-01-12T14:43:54.960Z,9.66
2023-01-12T14:46:33.555Z,9.61
2023-01-12T14:49:38.481Z,9.60
2023-01-12T14:52:17.048Z,9.53
2023-01-12T14:54:43.853Z,9.43
2023-01-12T14:57:21.590Z,9.32
2023-01-12T14:59:50.315Z,9.28
2023-01-12T15:02:33.094Z,9.19
2023-01-12T15:05:21.050Z,9.12
2023-01-12T15:08:08.695Z,9.06
2023-01-12T15:10:38.107Z,8.90
2023-01-12T15:13:33.727Z,8.78
2023-01-12T15:16:20.271Z,8.72
2023-01-12T15:19:05.754Z,8.61
2023-01-12T15:21:52.744Z,8.57
2023-01-12T15:24:46.499Z,8.53
2023-01-12T15:27:16.184Z,8.37
2023-01-12T15:29:42.797Z,8.22
2023-01-12T15:32:47.352Z,8.13
2023-01-12T15:35:26.485Z,8.02
2023-01-12T15:37:59.237Z,7.97
2023-01-12T15:40:27.502Z,7.93
2023-01-12T15:42:54.268Z,7.83
2023-01-12T15:45:37.089Z,7.76
2023-01-12T15:48:05.441Z,7.76
2023-01-12T15:50:33.825Z,7.76
2023-01-12T15:55:42.229Z,7.72
2023-01-12T15:58:09.184Z,7.52
2023-01-12T16:00:36.133Z,7.42
2023-01-12T16:03:54.579Z,7.37
2023-01-12T16:06:09.132Z,7.32
2023-01-12T16:08:35.727Z,7.24
2023-01-12T16:11:09.216Z,7.16
2023-01-12T16:13:35.967Z,7.13
2023-01-12T16:16:04.576Z,7.02
2023-01-12T16:18:31.261Z,6.97
2023-01-12T16:21:02.053Z,6.82
2023-01-12T16:26:35.425Z,6.69
2023-01-12T16:29:11.173Z,6.58
2023-01-12T16:31:39.339Z,6.52
2023-01-12T16:34:06.955Z,6.55
2023-01-12T16:36:33.818Z,6.34
2023-01-12T16:39:00.705Z,6.27
2023-01-12T16:44:29.602Z,6.13
2023-01-12T16:46:56.194Z,6.24
2023-01-12T16:49:23.278Z,6.30
2023-01-12T16:51:54.595Z,5.86
2023-01-12T16:54:21.616Z,5.88
2023-01-12T16:56:51.416Z,5.99
2023-01-12T16:59:18.019Z,5.83
2023-01-12T17:01:44.785Z,5.82
2023-01-12T17:04:16.633Z,5.48
2023-01-12T17:06:43.266Z,5.57
2023-01-12T17:11:51.926Z,5.15
2023-01-12T17:14:25.092Z,5.04
2023-01-12T17:16:56.046Z,4.91
2023-01-12T17:19:26.769Z,5.08
2023-01-12T17:21:54.949Z,5.08
2023-01-12T17:24:22.868Z,4.95
2023-01-12T17:26:51.874Z,4.87
2023-01-12T17:29:19.081Z,4.96
2023-01-12T17:31:45.757Z,4.93
2023-01-12T17:34:14.259Z,4.97
2023-01-12T17:36:42.024Z,4.98
2023-01-12T17:39:09.387Z,5.16
2023-01-12T17:41:54.436Z,5.29
2023-01-12T17:44:22.040Z,5.30
2023-01-12T17:46:48.738Z,5.43
2023-01-12T17:49:15.664Z,5.31
2023-01-12T17:51:44.864Z,5.04
2023-01-12T17:54:14.203Z,4.95
2023-01-12T17:56:43.906Z,4.80
2023-01-12T17:59:17.118Z,4.91
2023-01-12T18:01:45.376Z,4.84
2023-01-12T18:04:14.594Z,4.77
2023-01-12T18:06:42.220Z,4.45
2023-01-12T18:09:10.874Z,4.31
2023-01-12T18:11:47.221Z,4.14
2023-01-12T18:14:13.862Z,4.53
2023-01-12T18:16:40.444Z,4.66
2023-01-12T18:19:10.112Z,4.72
2023-01-12T18:21:36.733Z,4.69
2023-01-12T18:24:03.491Z,4.86
2023-01-12T18:26:41.422Z,4.93
2023-01-12T18:29:08.187Z,5.08
2023-01-12T18:31:37.409Z,5.03
2023-01-12T18:34:06.309Z,4.58
2023-01-12T18:36:35.328Z,4.33
2023-01-12T18:39:06.127Z,4.45
2023-01-12T18:41:51.193Z,4.69
2023-01-12T18:44:17.839Z,4.61
2023-01-12T18:47:05.492Z,4.56
2023-01-12T18:49:35.652Z,4.53
2023-01-12T18:52:21.933Z,4.33
2023-01-12T18:54:53.327Z,4.41
2023-01-12T18:57:22.875Z,4.33
2023-01-12T18:59:52.160Z,4.41
2023-01-12T19:02:20.317Z,4.51
2023-01-12T19:04:50.244Z,4.62
2023-01-12T19:07:29.917Z,4.74
2023-01-12T19:09:57.534Z,4.62
2023-01-12T19:12:25.576Z,4.86
2023-01-12T19:15:11.171Z,4.94
2023-01-12T19:17:41.712Z,4.72
2023-01-12T19:20:11.927Z,4.82
2023-01-12T19:22:57.052Z,4.86
2023-01-12T19:25:42.590Z,5.13
2023-01-12T19:28:32.739Z,5.30
2023-01-12T19:31:01.227Z,5.37
2023-01-12T19:33:28.524Z,5.43
2023-01-12T19:35:59.341Z,5.43
2023-01-12T19:38:25.904Z,5.45
2023-01-12T19:40:54.259Z,5.46
2023-01-12T19:43:26.250Z,5.39
2023-01-12T19:45:57.581Z,5.31
2023-01-12T19:48:26.786Z,5.05
2023-01-12T19:50:54.215Z,4.89
2023-01-12T19:53:28.648Z,4.90
2023-01-12T19:55:55.208Z,4.90
2023-01-12T19:58:22.098Z,4.88
2023-01-12T20:00:49.888Z,4.77
2023-01-12T20:03:21.618Z,4.67
2023-01-12T20:05:50.977Z,4.61
2023-01-12T20:08:19.710Z,4.65
2023-01-12T20:10:52.179Z,4.75
2023-01-12T20:13:18.807Z,4.66
2023-01-12T20:15:45.729Z,4.77
2023-01-12T20:18:13.809Z,4.82
2023-01-12T20:20:40.870Z,4.80
2023-01-12T20:23:07.427Z,4.79
2023-01-12T20:25:34.021Z,4.78
2023-01-12T20:28:00.610Z,4.77
2023-01-12T20:30:37.312Z,4.79
2023-01-12T20:33:05.812Z,4.87
2023-01-12T20:35:32.871Z,5.01
2023-01-12T20:37:59.513Z,4.95
2023-01-12T20:43:06.654Z,5.08
2023-01-12T20:45:33.364Z,5.12
2023-01-12T20:47:59.952Z,5.10
2023-01-12T20:50:26.544Z,5.13
2023-01-12T20:52:54.216Z,5.10
2023-01-12T20:55:21.291Z,5.09
2023-01-12T20:57:47.955Z,5.05
2023-01-12T21:00:14.757Z,5.09
2023-01-12T21:02:41.335Z,4.98
2023-01-12T21:05:09.075Z,4.56
2023-01-12T21:07:36.025Z,4.37
2023-01-12T21:10:02.774Z,4.34
2023-01-12T21:12:29.393Z,4.44
2023-01-12T21:14:55.964Z,4.35
2023-01-12T21:17:22.608Z,4.24
2023-01-12T21:19:49.160Z,4.22
2023-01-12T21:22:15.798Z,4.22
2023-01-12T21:24:42.533Z,4.02
2023-01-12T21:27:09.383Z,4.09
2023-01-12T21:29:35.929Z,3.97
2023-01-12T21:32:02.570Z,3.96
2023-01-12T21:34:29.262Z,4.08
2023-01-12T21:36:55.805Z,4.21
2023-01-12T21:39:22.343Z,4.18
2023-01-12T21:42:07.698Z,3.99
2023-01-12T21:44:34.255Z,3.64
2023-01-12T21:47:00.791Z,3.97
2023-01-12T21:49:27.374Z,3.77
2023-01-12T21:51:53.903Z,3.91
2023-01-12T21:54:20.518Z,3.99
2023-01-12T21:56:47.321Z,4.09
2023-01-12T21:59:13.923Z,4.09
2023-01-12T22:01:40.595Z,4.03
2023-01-12T22:04:07.305Z,4.15
2023-01-12T22:06:33.914Z,4.12
2023-01-12T22:09:00.491Z,4.22
2023-01-12T22:11:27.066Z,4.22
2023-01-12T22:13:53.685Z,4.27
2023-01-12T22:16:20.347Z,4.08
2023-01-12T22:18:50.176Z,4.10
2023-01-12T22:33:04.046Z,3.95
2023-01-12T22:35:30.610Z,4.05
2023-01-12T22:37:57.971Z,4.22
2023-01-12T22:40:24.556Z,4.29
2023-01-12T22:43:10.132Z,4.36
2023-01-12T22:45:37.695Z,4.40
2023-01-12T22:48:04.624Z,4.20
2023-01-12T22:50:31.178Z,4.12
2023-01-12T22:52:57.921Z,4.18
2023-01-12T22:55:25.828Z,4.24
2023-01-12T22:57:52.490Z,4.32
2023-01-12T23:00:20.244Z,4.34
2023-01-12T23:03:02.627Z,4.36
2023-01-12T23:05:36.478Z,4.38
2023-01-12T23:08:06.609Z,4.24
2023-01-12T23:10:33.366Z,4.15
2023-01-12T23:13:14.702Z,4.21
2023-01-12T23:15:48.680Z,4.08
2023-01-12T23:18:18.657Z,3.82
2023-01-12T23:20:46.376Z,3.85
2023-01-12T23:23:14.086Z,3.57
2023-01-12T23:25:44.373Z,3.60
2023-01-12T23:28:13.583Z,3.54
2023-01-12T23:30:40.562Z,3.72
2023-01-12T23:33:07.205Z,3.83
2023-01-12T23:35:40.300Z,3.88
2023-01-12T23:38:07.684Z,3.82
2023-01-12T23:40:34.249Z,3.91
2023-01-12T23:43:03.860Z,3.96
2023-01-12T23:45:30.436Z,3.65
2023-01-12T23:47:57.193Z,3.79
2023-01-12T23:50:24.553Z,3.84
2023-01-12T23:52:51.490Z,3.56
2023-01-12T23:55:18.447Z,3.68
2023-01-12T23:57:48.353Z,3.86
